Time;durP1;ratioP1;P1;durP2;ratioP2;P2;SDS_P1;SDS_P2;PMS_P1;PMS_P2;Temp;Humidity;BMP_temperature;BMP_pressure;BME280_temperature;BME280_humidity;BME280_pressure;Samples;Min_cycle;Max_cycle;Signal;HPM_P1;HPM_P2
2021/01/14 00:01:29;;;;;;;33.20;17.87;;;;;;;6.78;42.79;99282.12;1808810;79;21188;-77
2021/01/14 00:03:57;;;;;;;33.38;18.12;;;;;;;6.78;42.85;99271.47;1816213;79;21352;-78
2021/01/14 00:06:25;;;;;;;28.83;16.90;;;;;;;6.78;42.86;99274.13;1791017;79;21231;-77
2021/01/14 00:08:52;;;;;;;29.45;16.82;;;;;;;6.77;42.91;99279.13;1784245;80;21132;-75
2021/01/14 00:11:20;;;;;;;33.02;19.37;;;;;;;6.75;42.94;99279.77;1784094;80;21421;-78
2021/01/14 00:13:47;;;;;;;30.35;19.02;;;;;;;6.72;42.90;99279.61;1784289;79;21152;-76
2021/01/14 00:16:15;;;;;;;43.90;26.17;;;;;;;6.72;43.00;99282.28;1755845;80;21165;-78
2021/01/14 00:18:43;;;;;;;46.85;27.85;;;;;;;6.71;42.98;99274.44;1784145;80;21613;-78
2021/01/14 00:21:12;;;;;;;45.28;28.23;;;;;;;6.71;43.01;99275.27;1784051;80;21108;-77
2021/01/14 00:23:39;;;;;;;38.98;23.12;;;;;;;6.72;42.87;99280.09;1784003;80;21199;-76
2021/01/14 00:26:09;;;;;;;39.63;23.80;;;;;;;6.75;42.92;99289.91;1783930;80;21156;-77
2021/01/14 00:28:37;;;;;;;40.67;24.82;;;;;;;6.73;42.90;99283.11;1814382;79;21323;-77
2021/01/14 00:31:04;;;;;;;46.18;24.23;;;;;;;6.73;42.91;99287.09;1816377;78;21049;-76
2021/01/14 00:33:32;;;;;;;45.35;24.25;;;;;;;6.73;43.08;99279.95;1816272;79;21143;-79
2021/01/14 00:35:59;;;;;;;41.13;22.85;;;;;;;6.74;42.94;99282.10;1816403;79;21100;-77
2021/01/14 00:38:27;;;;;;;39.98;22.62;;;;;;;6.73;42.91;99283.11;1816386;79;21152;-77
2021/01/14 00:40:56;;;;;;;36.70;21.60;;;;;;;6.73;42.93;99293.75;1816520;79;21361;-77
2021/01/14 00:43:23;;;;;;;33.63;20.43;;;;;;;6.67;43.00;99287.73;1816019;79;21184;-78
2021/01/14 00:45:51;;;;;;;32.45;18.75;;;;;;;6.68;43.05;99282.27;1816309;79;21153;-76
2021/01/14 00:48:18;;;;;;;33.48;20.12;;;;;;;6.71;42.86;99281.09;1816162;79;21120;-77
2021/01/14 00:50:46;;;;;;;33.67;17.85;;;;;;;6.68;43.00;99281.44;1815477;79;21148;-76
2021/01/14 00:53:14;;;;;;;30.35;18.98;;;;;;;6.70;43.07;99288.74;1815852;79;21369;-79
2021/01/14 00:55:41;;;;;;;31.73;17.92;;;;;;;6.70;43.01;99288.74;1815789;79;21172;-77
2021/01/14 00:58:09;;;;;;;29.70;17.57;;;;;;;6.69;43.00;99283.09;1816062;78;21132;-76
2021/01/14 01:00:36;;;;;;;30.52;18.27;;;;;;;6.68;43.04;99274.78;1815951;79;21196;-76
2021/01/14 01:03:04;;;;;;;28.77;17.20;;;;;;;6.69;43.00;99284.42;1815201;79;21199;-77
2021/01/14 01:05:32;;;;;;;34.27;19.95;;;;;;;6.69;43.08;99283.09;1815568;79;22290;-78
2021/01/14 01:08:00;;;;;;;36.58;20.35;;;;;;;6.68;42.99;99282.27;1816054;78;21183;-76
2021/01/14 01:10:28;;;;;;;30.82;20.15;;;;;;;6.68;42.97;99282.77;1815684;79;21156;-77
2021/01/14 01:12:57;;;;;;;33.08;19.65;;;;;;;6.69;42.92;99280.43;1816030;79;21163;-76
2021/01/14 01:15:25;;;;;;;37.00;21.57;;;;;;;6.70;43.01;99294.06;1815913;79;21642;-78
2021/01/14 01:17:53;;;;;;;39.48;23.87;;;;;;;6.71;42.99;99299.21;1816165;79;21414;-75
2021/01/14 01:20:20;;;;;;;44.48;25.85;;;;;;;6.70;42.95;99306.87;1816054;79;21643;-77
2021/01/14 01:22:48;;;;;;;45.08;27.73;;;;;;;6.72;42.87;99313.34;1815913;79;21592;-77
2021/01/14 01:25:16;;;;;;;42.33;25.17;;;;;;;6.75;42.81;99315.70;1813258;79;21186;-76
2021/01/14 01:27:44;;;;;;;42.83;26.05;;;;;;;6.78;42.79;99316.72;1815596;79;21183;-77
2021/01/14 01:30:13;;;;;;;45.78;25.92;;;;;;;6.72;42.83;99321.33;1815653;79;22253;-78
2021/01/14 01:32:42;;;;;;;45.95;25.60;;;;;;;6.75;42.77;99322.35;1815573;79;21180;-78
2021/01/14 01:35:10;;;;;;;43.70;24.87;;;;;;;6.54;43.25;99322.30;1815874;79;21160;-77
2021/01/14 01:37:40;;;;;;;41.50;24.95;;;;;;;6.52;43.12;99320.77;1790873;79;21520;-79
2021/01/14 01:40:09;;;;;;;41.98;23.83;;;;;;;6.52;43.24;99320.77;1787002;79;21060;-78
2021/01/14 01:42:37;;;;;;;39.05;22.95;;;;;;;6.53;43.22;99313.95;1768448;80;21376;-79
2021/01/14 01:45:06;;;;;;;43.23;25.35;;;;;;;6.48;43.32;99314.10;1783978;80;21136;-77
2021/01/14 01:47:34;;;;;;;40.23;24.45;;;;;;;6.48;43.37;99308.28;1791971;79;21175;-77
2021/01/14 01:50:06;;;;;;;45.35;27.95;;;;;;;6.28;43.63;99302.89;1784316;80;21646;-76
2021/01/14 01:52:34;;;;;;;46.23;26.02;;;;;;;6.22;43.85;99314.13;1784017;80;21199;-77
2021/01/14 01:55:03;;;;;;;49.13;28.17;;;;;;;6.54;43.42;99317.44;1783774;80;21321;-78
2021/01/14 01:57:32;;;;;;;45.38;27.17;;;;;;;6.57;43.35;99312.64;1783599;80;21718;-75
2021/01/14 02:00:00;;;;;;;40.25;23.98;;;;;;;6.58;43.46;99312.14;1783977;80;21626;-77
2021/01/14 02:02:28;;;;;;;45.15;27.10;;;;;;;6.60;43.60;99297.69;1811722;79;21570;-79
2021/01/14 02:04:57;;;;;;;44.40;24.05;;;;;;;6.59;43.72;99301.36;1816463;79;21163;-77
2021/01/14 02:07:47;;;;;;;45.28;27.62;;;;;;;6.60;43.72;99299.02;1816325;79;21378;-78
2021/01/14 02:10:23;;;;;;;46.68;27.67;;;;;;;6.49;43.93;99304.62;1816338;79;21571;-77
2021/01/14 02:13:24;;;;;;;45.80;28.92;;;;;;;6.57;43.72;99307.81;1816499;79;21160;-77
2021/01/14 02:15:51;;;;;;;44.00;28.65;;;;;;;6.56;43.59;99312.81;1785180;79;21215;-79
2021/01/14 02:18:19;;;;;;;54.48;32.23;;;;;;;6.51;43.55;99307.97;1800450;79;21145;-77
2021/01/14 02:20:50;;;;;;;52.48;32.08;;;;;;;6.44;43.69;99305.59;1797956;79;21381;-77
2021/01/14 02:23:39;;;;;;;55.78;34.70;;;;;;;6.44;43.91;99308.76;1797717;78;21189;-76
2021/01/14 02:26:20;;;;;;;51.88;30.92;;;;;;;6.48;43.80;99306.12;1811860;77;21041;-77
2021/01/14 02:28:48;;;;;;;56.98;33.33;;;;;;;6.53;43.82;99314.45;1811833;79;21179;-77
2021/01/14 02:31:15;;;;;;;53.95;31.25;;;;;;;6.51;43.68;99315.95;1798638;77;21175;-76
2021/01/14 02:33:43;;;;;;;53.17;31.70;;;;;;;6.48;43.70;99304.79;1783723;80;21795;-76
2021/01/14 02:36:11;;;;;;;48.87;28.62;;;;;;;6.48;43.80;99308.78;1786378;77;21204;-76
2021/01/14 02:38:39;;;;;;;48.23;29.70;;;;;;;6.50;43.96;99310.30;1785295;77;21044;-76
2021/01/14 02:41:06;;;;;;;57.10;33.00;;;;;;;6.52;44.08;99302.15;1784154;80;21088;-75
2021/01/14 02:43:35;;;;;;;57.35;31.23;;;;;;;6.53;44.10;99303.81;1784302;80;21175;-77
2021/01/14 02:46:04;;;;;;;60.95;31.33;;;;;;;6.57;44.13;99305.16;1784061;80;21864;-77
2021/01/14 02:48:45;;;;;;;53.75;29.10;;;;;;;6.58;44.09;99303.66;1783672;80;21139;-78
2021/01/14 02:51:40;;;;;;;58.38;30.72;;;;;;;6.60;44.08;99307.50;1783762;80;21183;-78
2021/01/14 02:54:11;;;;;;;48.78;28.02;;;;;;;6.60;44.05;99302.19;1784187;77;21179;-75
2021/01/14 02:56:41;;;;;;;49.93;29.75;;;;;;;6.62;44.13;99306.84;1785907;79;21187;-76
2021/01/14 02:59:13;;;;;;;48.45;28.67;;;;;;;6.62;44.10;99310.83;1776860;79;21375;-76
2021/01/14 03:01:38;;;;;;;49.67;30.20;;;;;;;6.63;43.96;99316.98;1814851;79;21414;-76
2021/01/14 03:04:05;;;;;;;46.80;28.95;;;;;;;6.63;43.97;99317.80;1815469;79;21183;-77
2021/01/14 03:06:32;;;;;;;51.20;29.35;;;;;;;6.65;43.99;99317.16;1816173;79;21167;-77
2021/01/14 03:09:00;;;;;;;50.92;29.75;;;;;;;6.66;44.00;99317.50;1816528;78;21171;-77
2021/01/14 03:11:31;;;;;;;51.75;29.35;;;;;;;6.67;44.06;99315.66;1816039;79;21344;-77
2021/01/14 03:13:59;;;;;;;55.40;30.85;;;;;;;6.68;44.04;99323.51;1816305;79;21159;-76
2021/01/14 03:16:26;;;;;;;54.05;32.70;;;;;;;6.69;44.00;99321.17;1816268;79;21160;-76
2021/01/14 03:18:54;;;;;;;54.80;31.80;;;;;;;6.69;43.88;99310.53;1816034;79;21188;-77
2021/01/14 03:21:25;;;;;;;56.92;34.15;;;;;;;6.71;43.93;99311.19;1815679;79;21141;-77
2021/01/14 03:23:52;;;;;;;60.05;36.00;;;;;;;6.72;43.57;99310.69;1816470;79;22364;-77
2021/01/14 03:26:20;;;;;;;55.03;33.15;;;;;;;6.63;43.54;99306.33;1815663;79;21041;-76
2021/01/14 03:28:49;;;;;;;58.00;33.92;;;;;;;6.57;43.72;99307.31;1815735;79;21140;-77
2021/01/14 03:31:19;;;;;;;51.70;29.77;;;;;;;6.57;43.88;99305.98;1816058;79;21167;-75
2021/01/14 03:33:46;;;;;;;71.35;41.80;;;;;;;6.58;43.85;99312.14;1816287;79;21116;-75
2021/01/14 03:36:17;;;;;;;58.90;34.43;;;;;;;6.59;43.89;99307.18;1816434;79;22434;-77
2021/01/14 03:38:44;;;;;;;71.77;40.52;;;;;;;6.62;43.89;99302.84;1816281;79;21175;-77
2021/01/14 03:41:19;;;;;;;61.80;34.38;;;;;;;6.65;43.80;99303.03;1816235;79;21148;-77
2021/01/14 03:43:47;;;;;;;50.58;29.35;;;;;;;6.69;43.87;99301.22;1811772;77;21511;-75
2021/01/14 03:46:20;;;;;;;49.70;29.10;;;;;;;6.72;43.88;99310.69;1783956;80;21152;-77
2021/01/14 03:48:48;;;;;;;51.92;29.48;;;;;;;6.75;43.92;99313.03;1809865;79;21716;-78
2021/01/14 03:51:20;;;;;;;47.73;29.57;;;;;;;6.73;43.78;99315.04;1794355;79;21176;-78
2021/01/14 03:53:50;;;;;;;51.80;30.88;;;;;;;6.75;43.81;99307.72;1783353;80;21192;-77
2021/01/14 03:56:18;;;;;;;49.50;29.75;;;;;;;6.75;43.74;99304.55;1784272;80;21594;-77
2021/01/14 03:58:45;;;;;;;49.63;30.80;;;;;;;6.78;43.78;99303.41;1783863;80;21216;-76
2021/01/14 04:01:15;;;;;;;43.92;27.02;;;;;;;6.79;43.96;99299.75;1809805;79;21262;-75
2021/01/14 04:03:43;;;;;;;43.85;27.27;;;;;;;6.79;44.08;99304.56;1790457;80;21208;-76
2021/01/14 04:06:11;;;;;;;43.10;25.43;;;;;;;6.80;44.13;99310.72;1814192;79;21153;-76
2021/01/14 04:08:40;;;;;;;46.85;27.62;;;;;;;6.82;44.18;99315.40;1790788;80;21126;-76
2021/01/14 04:11:09;;;;;;;48.80;28.85;;;;;;;6.84;44.20;99312.89;1814151;79;21684;-76
2021/01/14 04:13:38;;;;;;;57.80;32.53;;;;;;;6.83;44.25;99313.06;1814861;79;21418;-78
2021/01/14 04:16:13;;;;;;;56.08;32.78;;;;;;;6.87;44.11;99314.41;1802395;78;21093;-79
2021/01/14 04:18:41;;;;;;;49.27;30.65;;;;;;;6.89;44.03;99307.08;1798013;79;21448;-77
2021/01/14 04:21:12;;;;;;;68.95;46.08;;;;;;;6.88;43.96;99309.42;1783938;80;21175;-76
2021/01/14 04:23:42;;;;;;;80.80;55.73;;;;;;;6.86;44.08;99316.25;1784154;80;21155;-76
2021/01/14 04:26:11;;;;;;;73.05;54.42;;;;;;;6.85;44.13;99313.72;1783592;80;21329;-78
2021/01/14 04:28:39;;;;;;;79.20;54.48;;;;;;;6.83;44.32;99307.24;1802295;79;21164;-77
2021/01/14 04:31:07;;;;;;;92.05;54.00;;;;;;;6.84;44.31;99312.89;1797001;79;21160;-77
2021/01/14 04:33:34;;;;;;;89.60;44.00;;;;;;;6.84;44.20;99310.23;1784448;79;21163;-77
2021/01/14 04:36:02;;;;;;;83.10;43.42;;;;;;;6.80;44.15;99316.04;1795715;79;21654;-78
2021/01/14 04:38:30;;;;;;;71.55;37.45;;;;;;;6.76;44.41;99316.03;1808356;79;21208;-77
2021/01/14 04:40:59;;;;;;;70.97;37.33;;;;;;;6.73;44.31;99316.38;1789363;79;21148;-77
2021/01/14 04:43:28;;;;;;;78.22;40.48;;;;;;;6.65;44.47;99313.67;1788206;79;21191;-77
2021/01/14 04:46:06;;;;;;;72.58;36.98;;;;;;;6.59;44.55;99317.31;1784047;79;21558;-78
2021/01/14 04:48:42;;;;;;;71.20;37.28;;;;;;;6.57;44.79;99315.80;1786890;77;21211;-79
2021/01/14 04:51:15;;;;;;;63.08;33.48;;;;;;;6.56;44.76;99318.13;1783742;80;21188;-77
2021/01/14 04:53:45;;;;;;;57.08;32.15;;;;;;;6.49;44.73;99317.09;1783774;80;21131;-79
2021/01/14 04:56:14;;;;;;;50.30;28.07;;;;;;;6.40;44.82;99324.20;1783913;80;21161;-76
2021/01/14 04:58:47;;;;;;;50.92;28.98;;;;;;;6.33;44.99;99320.02;1783842;80;21096;-78
2021/01/14 05:01:28;;;;;;;51.60;30.25;;;;;;;6.32;45.00;99317.03;1804012;79;21160;-79
2021/01/14 05:03:57;;;;;;;54.55;30.00;;;;;;;6.31;45.07;99314.05;1810549;77;21800;-78
2021/01/14 05:06:24;;;;;;;53.50;29.18;;;;;;;6.24;45.09;99318.31;1782770;79;21215;-77
2021/01/14 05:09:05;;;;;;;46.02;26.25;;;;;;;6.22;45.34;99316.80;1781802;80;21195;-76
2021/01/14 05:11:40;;;;;;;40.70;24.20;;;;;;;6.24;45.31;99311.67;1783973;80;21405;-79
2021/01/14 05:14:07;;;;;;;43.83;24.92;;;;;;;6.22;45.32;99315.00;1784132;80;21088;-78
2021/01/14 05:16:35;;;;;;;42.90;25.75;;;;;;;6.19;45.52;99312.64;1783996;80;21333;-80
2021/01/14 05:19:03;;;;;;;45.80;26.62;;;;;;;6.22;45.44;99320.78;1784991;77;21574;-77
2021/01/14 05:21:33;;;;;;;44.55;26.75;;;;;;;6.23;45.49;99314.00;1791357;77;21119;-80
2021/01/14 05:24:12;;;;;;;60.73;34.18;;;;;;;6.22;45.41;99318.13;1783726;80;21178;-76
2021/01/14 05:26:43;;;;;;;47.05;24.70;;;;;;;6.19;45.50;99311.31;1796093;79;21207;-78
2021/01/14 05:29:17;;;;;;;40.63;22.95;;;;;;;6.21;45.49;99313.80;1788003;79;21699;-78
2021/01/14 05:31:45;;;;;;;47.25;27.73;;;;;;;6.14;45.45;99312.28;1783346;80;21222;-79
2021/01/14 05:34:16;;;;;;;47.03;25.90;;;;;;;6.04;45.61;99312.41;1785717;77;21180;-78
2021/01/14 05:36:53;;;;;;;51.92;29.05;;;;;;;5.98;45.86;99309.02;1797187;78;21172;-78
2021/01/14 05:39:21;;;;;;;49.90;27.13;;;;;;;5.99;46.11;99309.36;1795580;79;21181;-81
2021/01/14 05:41:50;;;;;;;50.95;28.70;;;;;;;6.05;46.12;99312.73;1797504;79;21346;-79
2021/01/14 05:44:18;;;;;;;43.63;24.40;;;;;;;6.09;46.00;99308.77;1799280;79;21443;-77
2021/01/14 05:46:46;;;;;;;36.58;20.60;;;;;;;6.12;45.94;99315.58;1804784;77;21131;-78
2021/01/14 05:49:14;;;;;;;45.55;23.50;;;;;;;6.08;45.86;99320.88;1768210;79;21102;-79
2021/01/14 05:51:41;;;;;;;40.75;23.87;;;;;;;5.99;46.04;99322.64;1803138;77;21601;-79
2021/01/14 05:54:12;;;;;;;44.85;24.98;;;;;;;6.01;46.26;99318.52;1730413;80;21386;-76
2021/01/14 05:56:49;;;;;;;43.35;25.08;;;;;;;6.03;46.32;99318.69;1791112;79;21583;-79
2021/01/14 05:59:20;;;;;;;49.73;27.00;;;;;;;6.10;46.23;99318.91;1810593;79;21202;-79
2021/01/14 06:01:58;;;;;;;50.35;29.60;;;;;;;6.11;46.29;99319.23;1807008;79;21418;-77
2021/01/14 06:04:29;;;;;;;74.27;35.90;;;;;;;6.06;46.37;99319.71;1798727;78;21113;-79
2021/01/14 06:07:07;;;;;;;74.42;33.65;;;;;;;6.06;46.60;99326.36;1790083;78;21446;-76
2021/01/14 06:09:28;;;;;;;70.17;35.38;;;;;;;6.04;46.91;99329.69;1773264;77;21127;-78
2021/01/14 06:12:10;;;;;;;59.33;29.05;;;;;;;6.02;47.19;99327.66;1807444;78;21105;-77
2021/01/14 06:14:41;;;;;;;60.17;30.32;;;;;;;6.06;47.46;99326.36;1772660;78;21089;-76
2021/01/14 06:17:11;;;;;;;76.42;34.73;;;;;;;6.07;47.64;99320.05;1796780;77;21499;-78
2021/01/14 06:19:41;;;;;;;65.85;33.23;;;;;;;6.07;47.80;99323.20;1802658;77;21194;-80
2021/01/14 06:22:11;;;;;;;55.30;28.77;;;;;;;6.14;47.81;99331.40;1797191;77;21195;-78
2021/01/14 06:24:40;;;;;;;56.85;29.65;;;;;;;6.14;47.88;99323.42;1741232;79;21191;-78
2021/01/14 06:27:10;;;;;;;57.55;27.22;;;;;;;6.13;48.00;99327.05;1790728;77;21187;-79
2021/01/14 06:29:42;;;;;;;55.70;30.17;;;;;;;6.17;47.93;99322.59;1801118;77;21195;-77
2021/01/14 06:32:17;;;;;;;56.20;26.27;;;;;;;6.19;48.00;99322.45;1795761;77;21377;-78
2021/01/14 06:34:52;;;;;;;57.20;27.90;;;;;;;6.22;47.98;99322.11;1800003;79;21141;-77
2021/01/14 06:37:25;;;;;;;61.77;30.45;;;;;;;6.18;48.10;99318.96;1792171;77;21551;-79
2021/01/14 06:39:55;;;;;;;60.25;30.17;;;;;;;6.18;48.20;99322.13;1791135;78;21137;-80
2021/01/14 06:42:30;;;;;;;63.60;29.87;;;;;;;6.21;48.24;99323.94;1798357;77;21109;-77
2021/01/14 06:44:59;;;;;;;59.50;30.25;;;;;;;6.21;48.21;99318.62;1798051;77;21379;-78
2021/01/14 06:47:37;;;;;;;69.67;31.25;;;;;;;6.21;48.32;99321.28;1796296;77;21206;-77
2021/01/14 06:50:18;;;;;;;69.77;33.18;;;;;;;6.20;48.37;99330.26;1801950;77;21179;-80
2021/01/14 06:53:10;;;;;;;64.62;31.07;;;;;;;6.23;48.45;99330.45;1788889;77;21757;-78
2021/01/14 06:55:38;;;;;;;75.52;35.25;;;;;;;6.22;48.48;99330.95;1790618;79;21184;-78
2021/01/14 06:58:11;;;;;;;90.70;38.70;;;;;;;6.25;48.58;99335.10;1810267;77;21373;-76
2021/01/14 07:00:47;;;;;;;95.07;38.58;;;;;;;6.30;48.62;99334.95;1820298;77;21111;-79
2021/01/14 07:03:23;;;;;;;110.37;42.95;;;;;;;6.35;48.63;99341.96;1804109;78;21119;-78
2021/01/14 07:05:58;;;;;;;79.82;35.25;;;;;;;6.34;48.67;99341.63;1798793;79;21067;-77
2021/01/14 07:08:41;;;;;;;83.90;32.28;;;;;;;6.33;48.79;99346.63;1803584;77;21064;-77
2021/01/14 07:11:17;;;;;;;80.53;37.00;;;;;;;6.34;48.86;99351.44;1808398;79;21304;-77
2021/01/14 07:13:53;;;;;;;60.90;29.98;;;;;;;6.32;48.95;99358.75;1802034;77;21111;-79
2021/01/14 07:16:26;;;;;;;54.03;28.00;;;;;;;6.35;48.99;99355.76;1793501;79;21104;-78
2021/01/14 07:18:56;;;;;;;54.77;26.60;;;;;;;6.38;48.98;99358.11;1789235;79;21104;-78
2021/01/14 07:21:37;;;;;;;48.58;24.80;;;;;;;6.43;48.98;99353.65;1800957;79;21088;-77
2021/01/14 07:24:19;;;;;;;56.48;27.05;;;;;;;6.42;48.98;99362.63;1769559;79;21627;-76
2021/01/14 07:27:01;;;;;;;50.60;26.02;;;;;;;6.39;49.02;99354.95;1766868;79;21092;-78
2021/01/14 07:29:31;;;;;;;54.93;25.52;;;;;;;6.40;49.06;99357.45;1805334;79;21084;-78
2021/01/14 07:32:00;;;;;;;49.53;24.23;;;;;;;6.44;49.00;99361.46;1799591;79;21093;-78
2021/01/14 07:34:44;;;;;;;62.83;29.00;;;;;;;6.45;49.02;99356.97;1792280;79;21162;-77
2021/01/14 07:37:19;;;;;;;59.93;28.83;;;;;;;6.42;49.03;99358.64;1793709;77;21362;-80
2021/01/14 07:39:57;;;;;;;57.43;28.95;;;;;;;6.40;49.14;99359.27;1797170;79;21127;-79
2021/01/14 07:42:33;;;;;;;64.72;31.27;;;;;;;6.41;49.11;99359.14;1803091;79;21094;-80
2021/01/14 07:45:05;;;;;;;73.07;34.98;;;;;;;6.47;49.12;99358.99;1794015;79;21037;-80
2021/01/14 07:47:38;;;;;;;73.67;32.73;;;;;;;6.52;49.18;99356.69;1796234;77;21089;-78
2021/01/14 07:50:24;;;;;;;76.30;34.63;;;;;;;6.57;49.07;99351.22;1791300;79;21465;-80
2021/01/14 07:52:57;;;;;;;65.97;30.57;;;;;;;6.62;49.03;99350.73;1785951;77;21191;-78
2021/01/14 07:55:32;;;;;;;63.85;31.48;;;;;;;6.70;49.04;99353.44;1796886;79;21442;-77
2021/01/14 08:01:07;;;;;;;59.83;28.92;;;;;;;6.85;48.77;99358.97;1809409;79;21085;-80
2021/01/14 08:03:43;;;;;;;71.85;34.88;;;;;;;6.85;48.70;99364.30;1791021;77;22793;-79
2021/01/14 08:06:29;;;;;;;73.47;34.05;;;;;;;6.90;48.60;99366.47;1798372;77;21191;-76
2021/01/14 08:09:04;;;;;;;70.45;32.15;;;;;;;6.95;48.53;99367.68;1798742;79;21390;-79
2021/01/14 08:11:56;;;;;;;69.67;33.30;;;;;;;6.96;48.62;99361.36;1784967;79;21014;-77
2021/01/14 08:14:36;;;;;;;82.17;41.15;;;;;;;7.06;48.69;99359.88;1790047;77;21508;-75
2021/01/14 08:17:26;;;;;;;64.17;33.40;;;;;;;7.13;48.59;99362.24;1796579;79;21217;-79
2021/01/14 08:19:55;;;;;;;58.05;32.20;;;;;;;7.21;48.45;99368.06;1783722;79;21141;-77
2021/01/14 08:22:23;;;;;;;61.08;33.10;;;;;;;7.29;48.30;99369.42;1816165;78;21078;-75
2021/01/14 08:24:55;;;;;;;69.10;35.98;;;;;;;7.35;48.10;99363.42;1823526;78;21577;-77
2021/01/14 08:27:34;;;;;;;79.60;39.83;;;;;;;7.35;48.11;99356.77;1795831;78;21240;-77
2021/01/14 08:30:09;;;;;;;80.22;39.33;;;;;;;7.32;48.07;99361.11;1804035;77;21196;-77
2021/01/14 08:32:46;;;;;;;96.67;44.53;;;;;;;7.36;48.02;99360.62;1799118;78;20985;-76
2021/01/14 08:35:19;;;;;;;97.02;43.65;;;;;;;7.38;47.93;99359.94;1804639;77;21115;-76
2021/01/14 08:37:53;;;;;;;91.47;40.95;;;;;;;7.38;48.00;99361.77;1805034;77;21081;-77
2021/01/14 08:40:34;;;;;;;86.00;40.80;;;;;;;7.36;47.95;99362.45;1803996;77;21104;-77
2021/01/14 08:43:12;;;;;;;92.85;42.40;;;;;;;7.35;47.94;99358.09;1784570;79;21367;-77
2021/01/14 08:45:53;;;;;;;101.70;45.80;;;;;;;7.45;47.94;99362.80;1791380;77;21227;-77
2021/01/14 08:48:28;;;;;;;92.05;41.95;;;;;;;7.48;47.79;99358.45;1803374;78;21387;-78
2021/01/14 08:51:00;;;;;;;85.50;40.05;;;;;;;7.44;47.68;99365.10;1810465;78;21164;-76
2021/01/14 08:53:34;;;;;;;92.12;40.58;;;;;;;7.41;47.81;99366.78;1780229;80;21204;-79
2021/01/14 08:56:09;;;;;;;81.87;39.18;;;;;;;7.42;47.82;99360.45;1804980;78;21285;-78
2021/01/14 08:58:47;;;;;;;75.00;35.25;;;;;;;7.46;47.86;99355.13;1803837;78;21923;-77
2021/01/14 09:01:18;;;;;;;68.75;32.33;;;;;;;7.50;47.71;99355.64;1808244;78;21099;-77
2021/01/14 09:03:47;;;;;;;78.37;38.17;;;;;;;7.54;47.63;99360.47;1784799;79;21092;-80
2021/01/14 09:06:19;;;;;;;84.62;39.60;;;;;;;7.59;47.53;99364.80;1784964;79;21124;-75
2021/01/14 09:08:52;;;;;;;85.55;39.55;;;;;;;7.63;47.39;99366.14;1758592;79;21438;-78
2021/01/14 09:11:28;;;;;;;79.35;35.43;;;;;;;7.65;47.34;99367.80;1793533;79;21124;-78
2021/01/14 09:14:08;;;;;;;76.77;35.13;;;;;;;7.69;47.24;99367.80;1794770;78;21096;-78
2021/01/14 09:16:37;;;;;;;87.12;35.28;;;;;;;7.74;46.99;99369.46;1789917;79;21088;-77
2021/01/14 09:19:20;;;;;;;82.47;36.33;;;;;;;7.73;47.04;99361.97;1804031;79;21123;-79
2021/01/14 09:21:48;;;;;;;78.80;35.30;;;;;;;7.75;47.02;99359.13;1786408;79;21532;-79
2021/01/14 09:24:18;;;;;;;64.75;32.70;;;;;;;7.79;46.92;99359.96;1787057;79;37612;-81
2021/01/14 09:26:50;;;;;;;69.40;32.53;;;;;;;7.82;46.88;99360.14;1795759;79;21622;-77
2021/01/14 09:29:20;;;;;;;56.60;30.08;;;;;;;7.85;46.77;99362.45;1794507;77;21100;-77
2021/01/14 09:31:49;;;;;;;55.75;28.45;;;;;;;7.86;46.63;99356.97;1817929;78;21136;-79
2021/01/14 09:34:17;;;;;;;54.08;29.10;;;;;;;7.85;46.55;99360.61;1805144;77;22240;-80
2021/01/14 09:36:45;;;;;;;54.90;28.23;;;;;;;7.84;46.51;99360.28;1765940;77;21465;-78
2021/01/14 09:39:16;;;;;;;41.75;24.07;;;;;;;7.85;46.57;99355.28;1764637;79;21256;-81
2021/01/14 09:41:44;;;;;;;47.27;26.57;;;;;;;7.87;46.50;99352.47;1795036;77;21336;-76
2021/01/14 09:44:14;;;;;;;41.92;23.62;;;;;;;7.93;46.39;99356.29;1787286;80;21173;-78
2021/01/14 09:46:45;;;;;;;43.33;23.85;;;;;;;7.94;46.23;99361.44;1780236;80;21744;-76
2021/01/14 09:49:19;;;;;;;33.42;20.45;;;;;;;7.94;46.19;99366.77;1808144;79;20959;-79
2021/01/14 09:51:47;;;;;;;32.28;20.15;;;;;;;7.97;46.13;99361.12;1785965;79;21249;-80
2021/01/14 09:54:15;;;;;;;37.03;20.12;;;;;;;8.00;46.06;99359.45;1771404;79;21156;-76
2021/01/14 09:56:48;;;;;;;41.00;21.68;;;;;;;8.01;45.95;99357.11;1801670;77;21199;-80
2021/01/14 09:59:46;;;;;;;35.58;20.65;;;;;;;8.02;46.40;99363.28;1789478;77;21485;-81
2021/01/14 10:02:29;;;;;;;30.72;19.45;;;;;;;8.08;46.02;99359.92;1799419;78;21181;-79
2021/01/14 10:05:00;;;;;;;32.85;19.02;;;;;;;8.07;45.68;99352.43;1797947;78;21045;-79
2021/01/14 10:07:27;;;;;;;34.65;19.52;;;;;;;8.04;45.67;99351.45;1806875;77;20951;-80
2021/01/14 10:09:57;;;;;;;41.00;20.05;;;;;;;8.02;45.62;99345.44;1797699;78;21205;-80
2021/01/14 10:12:25;;;;;;;29.55;18.35;;;;;;;8.03;45.66;99348.43;1801163;79;21261;-80
2021/01/14 10:15:13;;;;;;;27.48;17.32;;;;;;;8.01;45.58;99350.95;1762519;77;21705;-79
2021/01/14 10:17:41;;;;;;;24.65;17.37;;;;;;;7.94;45.48;99350.78;1789260;79;21207;-80
2021/01/14 10:20:12;;;;;;;28.73;17.48;;;;;;;7.89;45.52;99350.45;1795906;79;21657;-81
2021/01/14 10:25:09;;;;;;;32.85;20.40;;;;;;;7.82;45.66;99341.48;1872520;76;22664;-78
2021/01/14 10:27:37;;;;;;;29.48;18.12;;;;;;;7.82;45.73;99345.48;1833931;76;21655;-77
2021/01/14 10:30:22;;;;;;;25.45;15.63;;;;;;;7.84;45.57;99339.47;1762295;79;21380;-78
2021/01/14 10:32:50;;;;;;;28.32;16.60;;;;;;;7.81;45.50;99332.65;1771133;79;21188;-80
2021/01/14 10:35:29;;;;;;;26.00;16.62;;;;;;;7.81;45.48;99329.98;1744649;79;21203;-81
2021/01/14 10:38:10;;;;;;;26.00;15.95;;;;;;;7.84;45.48;99325.63;1779181;79;21140;-80
2021/01/14 10:40:44;;;;;;;25.72;16.17;;;;;;;7.88;45.52;99327.47;1778224;79;21208;-78
2021/01/14 10:43:14;;;;;;;24.23;16.30;;;;;;;7.91;45.43;99325.80;1787604;79;21381;-78
2021/01/14 10:45:43;;;;;;;22.17;15.72;;;;;;;7.94;45.41;99328.61;1743503;81;21193;-78
2021/01/14 10:48:14;;;;;;;25.72;16.45;;;;;;;7.96;45.32;99329.30;1771190;79;21536;-78
2021/01/14 10:50:52;;;;;;;28.02;15.30;;;;;;;8.01;45.26;99322.45;1790959;78;21620;-79
2021/01/14 10:53:32;;;;;;;25.02;16.82;;;;;;;8.06;45.15;99331.27;1765645;80;21169;-78
2021/01/14 10:56:12;;;;;;;27.10;17.35;;;;;;;8.09;44.94;99326.94;1765218;80;21292;-79
2021/01/14 10:58:52;;;;;;;24.43;14.93;;;;;;;8.09;44.91;99322.94;1727652;80;21229;-78
2021/01/14 11:01:21;;;;;;;;;;;;;;;8.10;44.81;99321.43;1778936;79;21176;-78
2021/01/14 11:03:50;;;;;;;22.70;15.13;;;;;;;8.11;44.64;99320.92;1773969;79;20358;-80
2021/01/14 11:06:31;;;;;;;21.00;14.25;;;;;;;8.11;44.64;99320.92;1769998;79;22217;-78
2021/01/14 11:09:10;;;;;;;22.67;14.47;;;;;;;8.11;44.78;99316.42;1795665;79;21224;-81
2021/01/14 11:11:57;;;;;;;22.87;14.68;;;;;;;8.11;44.63;99315.09;1751311;80;21166;-78
2021/01/14 11:14:37;;;;;;;22.13;15.40;;;;;;;8.14;44.76;99317.92;1787083;78;21125;-80
2021/01/14 11:17:05;;;;;;;36.05;22.62;;;;;;;8.16;44.70;99318.58;1801505;79;21425;-80
2021/01/14 11:19:34;;;;;;;32.30;19.55;;;;;;;8.22;44.56;99313.91;1787653;79;21183;-83
2021/01/14 11:22:03;;;;;;;30.90;19.27;;;;;;;8.24;44.57;99314.56;1737073;78;22234;-84
2021/01/14 11:24:32;;;;;;;34.10;19.27;;;;;;;8.27;44.52;99317.40;1793614;78;21189;-79
2021/01/14 11:27:00;;;;;;;30.50;17.92;;;;;;;8.27;44.53;99312.89;1750361;79;21174;-83
2021/01/14 11:29:32;;;;;;;32.48;18.27;;;;;;;8.29;44.51;99308.70;1777189;79;21282;-80
2021/01/14 11:31:58;;;;;;;31.10;17.40;;;;;;;8.31;44.45;99312.02;1753432;80;21439;-80
2021/01/14 11:34:27;;;;;;;25.80;14.95;;;;;;;8.31;44.38;99311.55;1781928;79;21365;-80
2021/01/14 11:36:56;;;;;;;24.70;14.83;;;;;;;8.33;44.27;99303.36;1798307;78;21760;-77
2021/01/14 11:39:23;;;;;;;26.65;16.55;;;;;;;8.32;44.14;99311.05;1795337;79;21711;-80
2021/01/14 11:41:52;;;;;;;24.87;15.88;;;;;;;8.21;44.00;99308.73;1753595;80;21202;-78
2021/01/14 11:44:20;;;;;;;24.35;14.78;;;;;;;8.07;44.21;99310.27;1781315;78;21106;-79
2021/01/14 11:46:49;;;;;;;28.83;16.95;;;;;;;8.02;44.49;99313.44;1764813;80;21930;-80
2021/01/14 11:49:17;;;;;;;25.62;16.00;;;;;;;7.96;44.46;99309.30;1775491;80;21203;-80
2021/01/14 11:51:54;;;;;;;25.20;15.58;;;;;;;7.94;44.67;99301.95;1790584;78;21548;-77